Time;durP1;ratioP1;P1;durP2;ratioP2;P2;SDS_P1;SDS_P2;PMS_P1;PMS_P2;Temp;Humidity;BMP_temperature;BMP_pressure;BME280_temperature;BME280_humidity;BME280_pressure;Samples;Min_cycle;Max_cycle;Signal;HPM_P1;HPM_P2
2023/06/15 00:02:02;;;;;;;6.83;5.90;;;;;;;13.58;100.00;102095.56;4976401;28;21104;-43
2023/06/15 00:04:30;;;;;;;9.33;6.77;;;;;;;13.56;100.00;102102.94;4976201;28;20427;-44
2023/06/15 00:06:58;;;;;;;7.30;6.70;;;;;;;13.54;100.00;102102.31;4975364;28;20427;-44
2023/06/15 00:09:27;;;;;;;7.90;7.20;;;;;;;13.52;100.00;102109.72;4975842;28;20454;-44
2023/06/15 00:11:55;;;;;;;10.87;7.10;;;;;;;13.54;100.00;102109.50;4976130;28;20606;-44
2023/06/15 00:14:23;;;;;;;11.17;8.40;;;;;;;13.53;100.00;102108.66;4976662;28;20431;-44
2023/06/15 00:16:54;;;;;;;7.67;6.97;;;;;;;13.54;100.00;102105.00;4975491;28;20562;-45
2023/06/15 00:19:26;;;;;;;8.00;6.83;;;;;;;13.55;100.00;102100.47;4976105;28;20447;-44
2023/06/15 00:21:54;;;;;;;8.10;7.40;;;;;;;13.54;100.00;102102.31;4976371;28;20442;-44
2023/06/15 00:24:23;;;;;;;8.10;7.33;;;;;;;13.53;100.00;102099.81;4976509;28;20494;-45
2023/06/15 00:26:51;;;;;;;8.00;7.30;;;;;;;13.53;100.00;102097.16;4974187;28;20438;-44
2023/06/15 00:29:18;;;;;;;7.63;7.03;;;;;;;13.50;100.00;102101.00;4992538;28;20481;-44
2023/06/15 00:31:47;;;;;;;8.03;7.43;;;;;;;13.47;100.00;102090.66;4995240;28;20442;-44
2023/06/15 00:34:16;;;;;;;11.47;7.07;;;;;;;13.44;100.00;102101.72;4995450;28;20857;-44
2023/06/15 00:36:45;;;;;;;9.40;7.70;;;;;;;13.40;100.00;102091.56;4994356;28;20516;-43
2023/06/15 00:39:13;;;;;;;12.40;8.00;;;;;;;13.34;100.00;102093.13;4976157;28;20470;-45
2023/06/15 00:41:42;;;;;;;9.10;8.20;;;;;;;13.31;100.00;102096.19;4975816;28;20541;-44
2023/06/15 00:44:12;;;;;;;11.47;7.90;;;;;;;13.28;100.00;102108.09;4975410;28;20509;-44
2023/06/15 00:46:40;;;;;;;9.70;8.90;;;;;;;13.25;100.00;102096.91;4975690;28;20784;-44
2023/06/15 00:49:09;;;;;;;9.40;8.60;;;;;;;13.23;100.00;102098.94;4975195;28;20509;-44
2023/06/15 00:51:39;;;;;;;9.77;8.27;;;;;;;13.18;100.00;102090.59;4975345;28;20466;-46
2023/06/15 00:54:11;;;;;;;10.60;9.50;;;;;;;13.16;100.00;102097.97;4975841;28;20976;-45
2023/06/15 00:56:39;;;;;;;11.10;8.50;;;;;;;13.13;100.00;102095.66;4975516;28;20494;-44
2023/06/15 00:59:07;;;;;;;8.67;8.17;;;;;;;13.11;100.00;102098.50;4974603;28;20466;-45
2023/06/15 01:01:35;;;;;;;9.50;8.30;;;;;;;13.09;100.00;102100.53;4975214;28;20443;-44
2023/06/15 01:04:07;;;;;;;8.90;8.20;;;;;;;13.09;100.00;102099.72;4975368;28;20426;-47
2023/06/15 01:06:41;;;;;;;8.67;7.97;;;;;;;13.07;100.00;102105.22;4958501;28;20442;-43
2023/06/15 01:09:13;;;;;;;11.57;10.63;;;;;;;13.07;100.00;102101.72;4974673;28;20449;-47
2023/06/15 01:11:42;;;;;;;10.67;9.70;;;;;;;13.05;100.00;102099.19;4974972;28;20770;-44
2023/06/15 01:14:11;;;;;;;12.80;9.47;;;;;;;13.04;100.00;102100.22;4974768;28;20529;-44
2023/06/15 01:16:52;;;;;;;10.20;9.33;;;;;;;13.01;100.00;102097.06;4975139;28;20427;-44
2023/06/15 01:19:39;;;;;;;10.13;9.30;;;;;;;12.97;100.00;102096.59;4993690;28;20469;-44
2023/06/15 01:22:16;;;;;;;14.63;9.73;;;;;;;12.93;100.00;102097.16;4993323;28;20472;-45
2023/06/15 01:24:58;;;;;;;10.90;9.97;;;;;;;12.90;100.00;102090.31;4993411;28;21010;-44
2023/06/15 01:27:28;;;;;;;13.13;11.47;;;;;;;12.89;100.00;102095.81;4987080;28;20469;-46
2023/06/15 01:29:57;;;;;;;10.57;9.57;;;;;;;12.85;100.00;102099.84;4973731;28;20419;-45
2023/06/15 01:32:25;;;;;;;11.53;10.53;;;;;;;12.84;100.00;102101.72;4973641;28;20470;-44
2023/06/15 01:34:55;;;;;;;12.07;11.00;;;;;;;12.82;100.00;102097.53;4973706;28;20466;-44
2023/06/15 01:37:23;;;;;;;10.87;9.87;;;;;;;12.78;100.00;102094.41;4972271;28;20471;-46
2023/06/15 01:39:51;;;;;;;11.07;9.97;;;;;;;12.74;100.00;102091.25;4973692;28;20466;-44
2023/06/15 01:42:20;;;;;;;9.40;8.70;;;;;;;12.73;100.00;102094.09;4973851;28;20427;-44
2023/06/15 01:44:52;;;;;;;10.70;9.83;;;;;;;12.70;100.00;102092.59;4973653;28;20474;-44
2023/06/15 01:47:21;;;;;;;9.97;9.17;;;;;;;12.71;100.00;102096.13;4974062;28;20864;-45
2023/06/15 01:49:49;;;;;;;11.03;10.00;;;;;;;12.72;100.00;102092.44;4973782;28;20431;-45
2023/06/15 01:52:17;;;;;;;11.67;10.80;;;;;;;12.70;100.00;102086.41;4973848;28;20786;-44
2023/06/15 01:54:45;;;;;;;12.57;10.77;;;;;;;12.70;100.00;102086.41;4973259;28;20537;-45
2023/06/15 01:57:14;;;;;;;12.60;11.37;;;;;;;12.70;100.00;102083.75;4973670;28;20477;-43
2023/06/15 01:59:43;;;;;;;11.50;10.50;;;;;;;12.69;100.00;102090.94;4973563;28;20529;-44
2023/06/15 02:02:12;;;;;;;12.40;11.10;;;;;;;12.67;100.00;102084.09;4973356;28;20438;-45
2023/06/15 02:04:41;;;;;;;12.00;10.90;;;;;;;12.65;100.00;102086.13;4973594;28;20522;-44
2023/06/15 02:07:09;;;;;;;11.97;10.97;;;;;;;12.61;100.00;102074.94;4973307;28;20498;-44
2023/06/15 02:09:36;;;;;;;12.77;11.77;;;;;;;12.60;100.00;102078.59;4973571;28;21042;-48
2023/06/15 02:12:06;;;;;;;12.93;11.87;;;;;;;12.59;100.00;102082.31;4973321;28;20507;-44
2023/06/15 02:14:41;;;;;;;13.47;12.10;;;;;;;12.58;100.00;102079.81;4974234;28;20581;-48
2023/06/15 02:17:10;;;;;;;13.20;11.73;;;;;;;12.56;100.00;102081.84;4969355;28;20446;-44
2023/06/15 02:19:40;;;;;;;12.60;11.30;;;;;;;12.55;100.00;102081.00;4973146;28;20451;-44
2023/06/15 02:22:08;;;;;;;12.90;11.77;;;;;;;12.52;100.00;102075.16;4973513;28;20789;-43
2023/06/15 02:24:36;;;;;;;13.70;12.30;;;;;;;12.49;100.00;102067.47;4974144;28;20443;-44
2023/06/15 02:27:05;;;;;;;11.17;10.17;;;;;;;12.48;100.00;102071.19;4973258;28;20427;-44
2023/06/15 02:29:33;;;;;;;11.70;10.87;;;;;;;12.46;100.00;102070.50;4974287;28;20509;-44
2023/06/15 02:32:01;;;;;;;12.73;11.40;;;;;;;12.47;100.00;102077.53;4973275;28;20451;-44
2023/06/15 02:34:39;;;;;;;13.63;12.37;;;;;;;12.50;100.00;102086.06;4973445;28;20880;-44
2023/06/15 02:37:08;;;;;;;14.20;13.00;;;;;;;12.60;100.00;102089.31;4972846;28;20598;-44
2023/06/15 02:39:37;;;;;;;17.67;16.17;;;;;;;12.76;100.00;102081.19;4973320;28;20509;-44
2023/06/15 02:42:06;;;;;;;15.90;14.73;;;;;;;12.85;100.00;102079.28;4973676;28;20439;-49
2023/06/15 02:44:40;;;;;;;15.60;14.30;;;;;;;12.87;100.00;102073.75;4973777;28;20517;-44
2023/06/15 02:47:10;;;;;;;14.43;13.13;;;;;;;12.88;100.00;102086.13;4972844;28;20425;-44
2023/06/15 02:49:45;;;;;;;13.03;12.10;;;;;;;12.90;100.00;102084.94;4976517;28;20430;-43
2023/06/15 02:52:14;;;;;;;14.53;13.20;;;;;;;12.89;100.00;102091.31;4976819;28;20533;-45
2023/06/15 02:54:43;;;;;;;16.20;14.27;;;;;;;12.94;100.00;102090.75;4976900;28;20482;-44
2023/06/15 02:57:11;;;;;;;16.60;15.13;;;;;;;13.04;100.00;102094.03;4975675;28;20533;-46
2023/06/15 02:59:40;;;;;;;16.13;14.77;;;;;;;13.10;100.00;102096.03;4976978;28;20799;-44
2023/06/15 03:02:08;;;;;;;15.43;14.27;;;;;;;13.12;100.00;102084.13;4977047;28;20514;-44
2023/06/15 03:04:44;;;;;;;14.70;13.57;;;;;;;13.13;100.00;102084.94;4976731;28;20423;-44
2023/06/15 03:07:16;;;;;;;13.20;12.23;;;;;;;13.13;100.00;102085.78;4975419;28;20944;-45
2023/06/15 03:09:53;;;;;;;14.90;13.70;;;;;;;13.13;100.00;102084.94;4976740;28;20461;-49
2023/06/15 03:12:37;;;;;;;14.07;12.77;;;;;;;13.11;100.00;102081.63;4976558;28;20444;-48
2023/06/15 03:15:12;;;;;;;15.13;13.83;;;;;;;13.11;100.00;102081.63;4976561;28;20470;-44
2023/06/15 03:17:41;;;;;;;15.90;14.50;;;;;;;13.13;100.00;102076.91;4950460;28;20509;-46
2023/06/15 03:20:11;;;;;;;15.83;14.63;;;;;;;13.15;100.00;102077.56;4976131;28;21150;-44
2023/06/15 03:22:40;;;;;;;16.33;15.03;;;;;;;13.15;100.00;102077.56;4975870;28;20530;-45
2023/06/15 03:25:11;;;;;;;15.07;13.77;;;;;;;13.17;100.00;102079.03;4975897;28;20435;-45
2023/06/15 03:27:42;;;;;;;17.77;16.17;;;;;;;13.29;100.00;102079.44;4971284;28;20477;-46
2023/06/15 03:30:11;;;;;;;15.90;14.70;;;;;;;13.37;100.00;102078.53;4976024;28;20462;-45
2023/06/15 03:32:39;;;;;;;16.03;14.83;;;;;;;13.46;100.00;102074.75;4975597;28;20944;-44
2023/06/15 03:35:08;;;;;;;17.70;15.90;;;;;;;13.54;100.00;102083.56;4975857;28;20582;-45
2023/06/15 03:37:36;;;;;;;15.80;14.67;;;;;;;13.67;100.00;102081.06;4975419;28;20553;-46
2023/06/15 03:40:08;;;;;;;17.30;15.70;;;;;;;13.82;100.00;102089.97;4975788;28;20435;-45
2023/06/15 03:42:36;;;;;;;16.90;15.43;;;;;;;13.96;100.00;102082.91;4975698;28;20450;-44
2023/06/15 03:45:04;;;;;;;15.33;14.13;;;;;;;14.10;100.00;102078.53;4975621;28;20431;-44
2023/06/15 03:47:33;;;;;;;17.83;16.07;;;;;;;14.28;100.00;102082.47;4968437;28;20571;-45
2023/06/15 03:50:01;;;;;;;17.33;15.60;;;;;;;14.47;100.00;102078.41;4975467;28;20431;-45
2023/06/15 03:52:32;;;;;;;15.80;14.53;;;;;;;14.68;100.00;102070.38;4975509;28;20473;-44
2023/06/15 03:55:00;;;;;;;14.50;13.40;;;;;;;14.91;100.00;102071.00;4975442;28;20876;-43
2023/06/15 03:57:29;;;;;;;19.20;17.13;;;;;;;15.14;100.00;102062.72;4974966;28;21000;-47
2023/06/15 03:59:57;;;;;;;18.57;17.17;;;;;;;15.35;100.00;102067.25;4974525;28;20522;-47
2023/06/15 04:02:25;;;;;;;15.93;14.73;;;;;;;15.52;100.00;102060.56;4974961;28;20968;-45
2023/06/15 04:04:55;;;;;;;18.37;16.87;;;;;;;15.60;100.00;102063.09;4975139;28;20439;-45
2023/06/15 04:07:23;;;;;;;16.30;15.00;;;;;;;15.64;100.00;102061.69;4974724;28;20525;-47
2023/06/15 04:09:51;;;;;;;17.43;15.83;;;;;;;15.76;100.00;102057.41;4975470;28;20460;-45
2023/06/15 04:12:18;;;;;;;16.20;14.60;;;;;;;15.86;100.00;102063.25;4975081;28;20439;-45
2023/06/15 04:14:47;;;;;;;14.67;13.53;;;;;;;15.99;100.00;102057.94;4974909;28;20569;-45
2023/06/15 04:17:16;;;;;;;15.73;14.53;;;;;;;16.21;100.00;102053.28;4976936;28;20477;-46
2023/06/15 04:19:44;;;;;;;14.40;13.27;;;;;;;16.36;100.00;102055.78;4994513;28;20434;-45
2023/06/15 04:22:11;;;;;;;15.97;14.60;;;;;;;16.44;100.00;102052.91;4994316;28;20430;-44
2023/06/15 04:24:39;;;;;;;15.47;14.20;;;;;;;16.65;100.00;102054.66;4994419;28;20426;-47
2023/06/15 04:27:08;;;;;;;14.43;13.33;;;;;;;16.86;100.00;102058.00;4993865;28;20512;-44
2023/06/15 04:29:36;;;;;;;15.17;14.07;;;;;;;17.68;100.00;102054.88;4993890;28;20980;-44
2023/06/15 04:32:07;;;;;;;15.70;13.80;;;;;;;18.99;100.00;102051.50;4994250;28;20791;-45
2023/06/15 04:34:34;;;;;;;13.40;12.20;;;;;;;20.26;100.00;102043.50;4994181;28;21223;-45
2023/06/15 04:37:06;;;;;;;12.60;11.50;;;;;;;21.32;100.00;102031.84;4993752;28;20788;-45
2023/06/15 04:39:34;;;;;;;11.70;10.70;;;;;;;22.46;100.00;102033.72;4994165;28;20457;-46
2023/06/15 04:42:02;;;;;;;11.70;9.87;;;;;;;23.34;100.00;102022.94;4993742;28;20923;-45
2023/06/15 04:44:30;;;;;;;12.10;9.10;;;;;;;24.08;100.00;102017.94;4993706;28;20426;-46
2023/06/15 04:46:58;;;;;;;9.70;8.90;;;;;;;24.85;100.00;102023.13;4991014;28;20464;-45
2023/06/15 04:49:27;;;;;;;9.93;9.13;;;;;;;25.44;100.00;102019.19;4974397;28;20864;-44
2023/06/15 04:51:55;;;;;;;8.40;7.80;;;;;;;26.07;100.00;102020.84;4974091;28;20493;-49
2023/06/15 04:54:23;;;;;;;8.07;7.53;;;;;;;26.63;100.00;102019.06;4974089;28;20430;-47
2023/06/15 04:56:51;;;;;;;7.57;6.87;;;;;;;27.13;94.21;102023.72;4973681;28;20497;-45
2023/06/15 04:59:20;;;;;;;8.27;7.57;;;;;;;27.29;89.89;102016.31;4974095;28;20509;-46
2023/06/15 05:01:47;;;;;;;8.20;7.50;;;;;;;27.60;82.69;102019.81;4974034;28;20439;-47
2023/06/15 05:04:15;;;;;;;6.20;5.90;;;;;;;28.09;79.45;102017.97;4974229;28;20438;-50
2023/06/15 05:06:45;;;;;;;7.70;7.13;;;;;;;28.58;74.00;102026.16;4973586;28;20461;-47
2023/06/15 05:09:13;;;;;;;6.80;6.30;;;;;;;29.00;70.55;102026.34;4973599;28;20470;-50
2023/06/15 05:11:41;;;;;;;7.10;6.03;;;;;;;28.34;66.41;102014.25;4973564;28;21020;-46
2023/06/15 05:14:08;;;;;;;5.63;5.13;;;;;;;27.57;68.60;102023.91;4974008;28;20438;-51
2023/06/15 05:16:36;;;;;;;5.93;5.60;;;;;;;26.88;68.23;102015.53;4973843;28;20506;-47
2023/06/15 05:19:04;;;;;;;5.77;5.27;;;;;;;27.11;70.51;102014.97;4973199;28;20884;-46
2023/06/15 05:21:32;;;;;;;6.30;5.80;;;;;;;27.01;67.72;102012.22;4973458;28;20438;-48
2023/06/15 05:24:01;;;;;;;5.60;5.10;;;;;;;26.24;64.79;102015.16;4974114;28;20496;-46
2023/06/15 05:26:29;;;;;;;5.80;5.40;;;;;;;25.75;66.01;102012.78;4973826;28;20441;-46
2023/06/15 05:28:57;;;;;;;6.43;6.03;;;;;;;25.25;67.04;102015.22;4968468;28;20473;-46
2023/06/15 05:31:25;;;;;;;6.57;5.97;;;;;;;24.90;69.18;102012.25;4973254;28;20435;-49
2023/06/15 05:33:54;;;;;;;6.47;5.97;;;;;;;25.21;70.96;102022.28;4973494;28;20480;-46
2023/06/15 05:36:22;;;;;;;6.63;6.03;;;;;;;26.55;66.63;102016.06;4973257;28;20470;-46
2023/06/15 05:39:11;;;;;;;6.13;5.63;;;;;;;26.65;66.08;102016.88;4973234;28;20462;-45
2023/06/15 05:41:39;;;;;;;6.50;6.10;;;;;;;25.92;61.34;102001.66;4973296;28;20430;-47
2023/06/15 05:44:11;;;;;;;6.20;5.70;;;;;;;25.16;64.95;102005.88;4973325;28;20521;-48
2023/06/15 05:46:39;;;;;;;5.77;5.37;;;;;;;24.46;65.51;102014.28;4973207;28;20475;-49
2023/06/15 05:49:07;;;;;;;6.70;6.20;;;;;;;23.88;67.31;102020.44;4972092;28;20813;-47
2023/06/15 05:51:35;;;;;;;6.73;6.13;;;;;;;23.43;70.44;102026.94;4973103;28;20426;-45
2023/06/15 05:54:03;;;;;;;5.77;5.20;;;;;;;23.19;74.05;102030.06;4973501;28;20442;-46
2023/06/15 05:56:32;;;;;;;6.83;5.40;;;;;;;22.88;78.12;102029.56;4973083;28;20478;-45
2023/06/15 05:58:59;;;;;;;7.90;6.07;;;;;;;22.71;82.03;102030.63;4972614;28;20458;-45
2023/06/15 06:01:27;;;;;;;6.17;5.57;;;;;;;22.45;85.22;102030.16;4972854;28;20465;-45
2023/06/15 06:03:55;;;;;;;6.53;5.43;;;;;;;22.13;87.51;102034.44;4973276;28;20443;-44
2023/06/15 06:06:23;;;;;;;6.80;5.37;;;;;;;21.69;91.09;102044.06;4973027;28;20438;-44
2023/06/15 06:08:50;;;;;;;7.30;5.90;;;;;;;21.32;87.25;102040.81;4972646;28;20470;-45
2023/06/15 06:11:18;;;;;;;6.10;5.57;;;;;;;21.00;88.05;102042.16;4972838;28;20434;-45
2023/06/15 06:13:47;;;;;;;7.17;6.57;;;;;;;20.94;93.57;102037.69;4972863;28;20525;-45
2023/06/15 06:16:15;;;;;;;6.80;6.10;;;;;;;20.83;95.17;102047.47;4973061;28;20470;-44
2023/06/15 06:18:43;;;;;;;7.13;6.47;;;;;;;20.74;95.80;102034.47;4972447;28;20529;-44
2023/06/15 06:21:11;;;;;;;6.90;6.20;;;;;;;20.73;94.62;102035.50;4972846;28;20440;-45
2023/06/15 06:23:39;;;;;;;6.53;6.03;;;;;;;20.70;95.13;102041.41;4974093;28;20484;-46
2023/06/15 06:26:06;;;;;;;8.23;7.63;;;;;;;20.63;97.50;102041.53;4976767;28;20481;-44
2023/06/15 06:28:35;;;;;;;11.10;6.90;;;;;;;20.65;99.48;102042.09;4976501;28;20813;-44
2023/06/15 06:31:04;;;;;;;8.63;6.77;;;;;;;20.45;96.72;102038.03;4976754;28;20445;-44
2023/06/15 06:33:32;;;;;;;7.53;6.50;;;;;;;20.42;93.77;102032.03;4976632;28;20474;-46
2023/06/15 06:35:59;;;;;;;7.70;7.00;;;;;;;20.19;98.66;102025.66;4976747;28;20715;-44
2023/06/15 06:38:27;;;;;;;7.57;6.77;;;;;;;20.19;100.00;102026.47;4976111;28;20991;-45
2023/06/15 06:40:55;;;;;;;8.40;6.90;;;;;;;20.32;99.42;102037.16;4976418;28;20493;-44
2023/06/15 06:43:23;;;;;;;6.90;6.27;;;;;;;20.44;100.00;102023.66;4976300;28;20470;-44
2023/06/15 06:45:50;;;;;;;7.07;6.57;;;;;;;20.56;98.96;102031.81;4976679;28;20426;-45
2023/06/15 06:48:20;;;;;;;12.63;5.93;;;;;;;20.66;96.48;102032.09;4975967;28;20494;-46
2023/06/15 06:50:48;;;;;;;9.93;6.60;;;;;;;20.90;95.86;102036.50;4976732;28;20800;-44
2023/06/15 06:53:15;;;;;;;6.70;6.20;;;;;;;21.19;92.00;102037.50;4976125;28;20496;-45
2023/06/15 06:55:44;;;;;;;7.43;6.10;;;;;;;21.39;93.01;102036.09;4976483;28;20470;-44
2023/06/15 06:58:12;;;;;;;6.97;6.20;;;;;;;21.52;90.48;102043.16;4975860;28;20851;-44
2023/06/15 07:00:41;;;;;;;8.03;7.10;;;;;;;21.55;89.82;102041.84;4976352;28;20839;-44
2023/06/15 07:03:09;;;;;;;8.70;8.10;;;;;;;21.59;83.47;102041.16;4976044;28;20445;-46
2023/06/15 07:05:38;;;;;;;7.43;6.83;;;;;;;21.82;88.02;102045.72;4976168;28;20434;-47
2023/06/15 07:08:06;;;;;;;8.10;6.80;;;;;;;21.96;85.95;102041.69;4975521;28;20888;-46
2023/06/15 07:10:34;;;;;;;9.43;6.80;;;;;;;22.47;83.68;102055.22;4976054;28;20939;-47
2023/06/15 07:13:02;;;;;;;7.37;6.67;;;;;;;22.56;78.32;102051.03;4975921;28;20844;-44
2023/06/15 07:15:31;;;;;;;8.77;7.83;;;;;;;22.50;75.12;102041.13;4976047;28;20489;-45
2023/06/15 07:17:59;;;;;;;6.87;6.23;;;;;;;22.78;74.71;102040.31;4975310;28;20462;-48
2023/06/15 07:20:27;;;;;;;9.57;7.00;;;;;;;23.08;75.02;102034.53;4975824;28;20880;-45
2023/06/15 07:22:56;;;;;;;7.57;7.00;;;;;;;23.55;75.38;102024.09;4976069;28;20438;-45
2023/06/15 07:25:24;;;;;;;7.40;6.47;;;;;;;24.11;68.37;102026.47;4975880;28;20434;-49
2023/06/15 07:27:51;;;;;;;7.70;6.97;;;;;;;24.16;67.16;102022.97;4975241;28;20611;-44
2023/06/15 07:30:20;;;;;;;6.80;6.20;;;;;;;24.24;67.08;102025.25;4975592;28;20438;-45
2023/06/15 07:32:48;;;;;;;6.53;6.07;;;;;;;24.36;63.09;102025.09;4975357;28;20443;-44
2023/06/15 07:35:18;;;;;;;5.90;5.43;;;;;;;24.03;63.40;102018.72;4974661;28;20434;-45
2023/06/15 07:37:46;;;;;;;7.93;5.93;;;;;;;23.79;64.14;102030.13;4975019;28;20489;-46
2023/06/15 07:40:15;;;;;;;6.73;6.13;;;;;;;23.80;64.54;102023.59;4975437;28;20983;-48
2023/06/15 07:42:43;;;;;;;7.03;6.40;;;;;;;23.78;61.69;102029.28;4975266;28;20538;-44
2023/06/15 07:45:11;;;;;;;6.00;5.60;;;;;;;23.51;59.89;102039.28;4975551;28;20860;-47
2023/06/15 07:47:39;;;;;;;6.10;5.60;;;;;;;23.48;63.23;102040.59;4973336;28;20474;-48
2023/06/15 07:50:08;;;;;;;7.40;6.50;;;;;;;23.31;60.22;102038.94;4975680;28;20825;-46
2023/06/15 07:52:35;;;;;;;7.70;7.00;;;;;;;23.48;62.69;102029.72;4975313;28;20447;-47
2023/06/15 07:55:05;;;;;;;6.73;6.23;;;;;;;23.48;61.69;102026.16;4975484;28;20442;-46
2023/06/15 07:57:35;;;;;;;7.80;7.10;;;;;;;23.40;60.85;102030.16;4974585;28;20521;-44
2023/06/15 08:00:05;;;;;;;7.70;6.90;;;;;;;23.34;62.20;102024.84;4975364;28;20433;-46
2023/06/15 08:02:33;;;;;;;6.73;6.07;;;;;;;23.23;61.38;102029.31;4975110;28;20513;-45
2023/06/15 08:05:01;;;;;;;8.40;6.87;;;;;;;23.20;62.93;102031.72;4975285;28;20828;-44
2023/06/15 08:07:29;;;;;;;7.83;7.23;;;;;;;23.28;62.75;102034.00;4974537;28;20843;-45
2023/06/15 08:09:56;;;;;;;6.97;6.47;;;;;;;23.14;61.14;102036.25;4975180;28;20434;-44
2023/06/15 08:12:24;;;;;;;7.50;6.40;;;;;;;23.18;60.50;102033.88;4974767;28;20438;-47
2023/06/15 08:14:54;;;;;;;8.60;7.53;;;;;;;23.26;60.95;102031.56;4975413;28;20445;-45
2023/06/15 08:17:22;;;;;;;6.50;5.90;;;;;;;23.26;60.10;102039.72;4972686;28;20474;-51
2023/06/15 08:19:51;;;;;;;7.80;7.00;;;;;;;23.15;59.88;102046.06;4974894;28;20470;-53
2023/06/15 08:22:18;;;;;;;7.80;6.07;;;;;;;23.28;61.25;102044.91;4974720;28;20799;-47
2023/06/15 08:24:46;;;;;;;10.07;7.37;;;;;;;23.46;61.21;102034.59;4974820;28;20996;-50
2023/06/15 08:27:14;;;;;;;6.70;6.30;;;;;;;23.72;60.14;102040.38;4969723;28;20467;-45
2023/06/15 08:29:44;;;;;;;6.33;5.40;;;;;;;23.82;55.95;102029.63;4974582;28;20466;-48
2023/06/15 08:32:13;;;;;;;7.30;6.33;;;;;;;23.68;52.09;102032.69;4974621;28;20429;-49
2023/06/15 08:34:42;;;;;;;6.60;6.03;;;;;;;23.61;54.16;102033.97;4974659;28;20815;-45
2023/06/15 08:37:11;;;;;;;7.23;6.40;;;;;;;23.45;52.40;102038.38;4974122;28;20968;-44
2023/06/15 08:39:39;;;;;;;8.40;5.47;;;;;;;23.56;51.76;102034.75;4974350;28;20908;-48
2023/06/15 08:42:07;;;;;;;6.47;6.07;;;;;;;23.54;53.23;102045.03;4974617;28;20845;-46
2023/06/15 08:44:35;;;;;;;6.30;5.80;;;;;;;23.44;50.99;102039.47;4974470;28;20462;-48
2023/06/15 08:47:04;;;;;;;6.10;5.70;;;;;;;23.41;52.40;102037.25;4972168;28;20485;-44
2023/06/15 08:49:33;;;;;;;6.40;6.00;;;;;;;23.10;54.40;102044.09;4974275;28;20821;-45
2023/06/15 08:52:03;;;;;;;7.43;6.70;;;;;;;22.87;56.02;102043.44;4973783;28;20446;-46
2023/06/15 08:54:31;;;;;;;13.10;7.20;;;;;;;22.57;54.15;102062.72;4974318;28;20479;-47
2023/06/15 08:56:59;;;;;;;6.50;6.00;;;;;;;22.31;57.39;102057.91;4973740;28;20481;-46
2023/06/15 08:59:27;;;;;;;6.30;5.77;;;;;;;22.14;54.20;102049.66;4974131;28;20547;-47
2023/06/15 09:01:56;;;;;;;6.50;5.40;;;;;;;21.90;57.64;102053.50;4973780;28;20884;-46
2023/06/15 09:04:23;;;;;;;6.10;5.50;;;;;;;21.81;53.58;102049.47;4974049;28;20966;-48
2023/06/15 09:06:57;;;;;;;6.50;5.80;;;;;;;21.76;54.19;102042.06;4973455;28;20958;-45
2023/06/15 09:09:25;;;;;;;6.10;5.60;;;;;;;21.65;56.13;102040.22;4973925;28;20466;-46
2023/06/15 09:11:53;;;;;;;6.00;5.60;;;;;;;21.35;53.79;102034.94;4973650;28;20430;-50
2023/06/15 09:14:20;;;;;;;7.53;5.63;;;;;;;21.26;54.49;102040.94;4973898;28;20438;-46
2023/06/15 09:16:50;;;;;;;5.60;5.33;;;;;;;21.13;55.27;102060.16;4971357;28;20528;-47
2023/06/15 09:19:19;;;;;;;5.40;4.97;;;;;;;21.07;55.42;102055.63;4973519;28;21083;-47
2023/06/15 09:21:50;;;;;;;6.00;5.63;;;;;;;20.91;59.71;102054.41;4973673;28;20471;-48
2023/06/15 09:24:22;;;;;;;12.07;6.33;;;;;;;20.79;58.43;102051.69;4974004;28;20774;-50
2023/06/15 09:26:51;;;;;;;6.30;5.93;;;;;;;20.63;62.83;102052.38;4974192;28;20438;-45
2023/06/15 09:29:18;;;;;;;7.00;6.30;;;;;;;20.57;65.07;102056.00;4992970;28;20446;-45
2023/06/15 09:31:46;;;;;;;7.63;6.37;;;;;;;20.51;64.29;102053.38;4992482;28;20437;-43
2023/06/15 09:34:14;;;;;;;7.63;6.60;;;;;;;20.55;65.57;102041.84;4993141;28;20457;-45
2023/06/15 09:36:46;;;;;;;6.97;6.47;;;;;;;20.67;65.65;102033.75;4992381;28;20457;-44
2023/06/15 09:39:15;;;;;;;6.90;6.30;;;;;;;20.68;67.97;102032.69;4992913;28;20457;-44
2023/06/15 09:41:56;;;;;;;6.00;5.60;;;;;;;20.68;67.67;102024.53;4992685;28;20476;-48
2023/06/15 09:44:25;;;;;;;6.37;5.90;;;;;;;20.60;67.76;102027.59;4992695;28;20517;-44
2023/06/15 09:46:58;;;;;;;6.87;6.27;;;;;;;20.59;69.16;102026.78;4990432;28;20945;-44
2023/06/15 09:49:31;;;;;;;7.00;6.30;;;;;;;20.64;67.18;102032.31;4992954;28;20477;-45
2023/06/15 09:52:00;;;;;;;6.37;5.97;;;;;;;20.73;69.35;102028.22;4992497;28;20876;-44
2023/06/15 09:54:28;;;;;;;6.40;6.00;;;;;;;20.78;68.79;102030.25;4992858;28;20464;-43
2023/06/15 09:57:01;;;;;;;6.63;6.23;;;;;;;20.84;70.64;102024.72;4992407;28;20429;-45
2023/06/15 09:59:29;;;;;;;7.10;6.40;;;;;;;21.01;70.09;102021.31;4992153;28;20453;-47
2023/06/15 10:01:59;;;;;;;6.97;6.47;;;;;;;21.20;66.71;102006.63;4992578;28;20433;-47
2023/06/15 10:04:30;;;;;;;7.73;7.00;;;;;;;21.06;65.25;102013.28;4992529;28;20906;-43
2023/06/15 10:07:03;;;;;;;6.17;5.63;;;;;;;21.22;64.98;102013.44;4992183;28;20414;-50
2023/06/15 10:09:36;;;;;;;7.13;6.37;;;;;;;21.48;63.34;102018.38;4992509;28;20457;-46
2023/06/15 10:12:10;;;;;;;7.20;6.50;;;;;;;21.70;66.06;102018.59;4992437;28;20502;-50
2023/06/15 10:14:44;;;;;;;6.87;6.47;;;;;;;21.99;61.21;102016.75;4992435;28;20434;-49
2023/06/15 10:17:14;;;;;;;6.87;6.37;;;;;;;22.16;60.27;102019.56;4989644;28;21072;-48
2023/06/15 10:19:45;;;;;;;7.00;6.40;;;;;;;22.39;59.91;102023.00;4992351;28;20461;-50
2023/06/15 10:22:17;;;;;;;7.30;6.70;;;;;;;22.57;59.55;102006.47;4992152;28;20445;-45
2023/06/15 10:24:46;;;;;;;6.77;6.37;;;;;;;22.74;58.65;102011.09;4992465;28;20425;-44
2023/06/15 10:27:16;;;;;;;8.20;7.57;;;;;;;22.96;59.96;102006.59;4991839;28;20469;-46
2023/06/15 10:29:52;;;;;;;6.63;6.23;;;;;;;23.52;56.09;101997.38;4992336;28;20461;-48
2023/06/15 10:32:29;;;;;;;7.47;6.77;;;;;;;24.23;56.65;101996.31;4992397;28;20426;-47
2023/06/15 10:35:03;;;;;;;7.40;6.80;;;;;;;24.49;52.92;101986.50;4992540;28;20935;-45
2023/06/15 10:37:38;;;;;;;7.50;7.00;;;;;;;24.95;51.79;101990.44;4991911;28;20900;-50
2023/06/15 10:40:13;;;;;;;7.13;6.13;;;;;;;25.12;53.13;101985.66;4992386;28;20432;-47
2023/06/15 10:42:49;;;;;;;6.67;6.17;;;;;;;25.14;51.12;101994.41;4992311;28;21722;-50
2023/06/15 10:45:31;;;;;;;7.43;6.43;;;;;;;25.35;48.92;101988.00;4992472;28;20440;-48
2023/06/15 10:48:00;;;;;;;8.10;7.60;;;;;;;25.15;53.34;101993.31;4990904;28;20543;-45
2023/06/15 10:50:30;;;;;;;7.10;6.53;;;;;;;24.98;46.81;102003.56;4992236;28;20436;-52
2023/06/15 10:52:57;;;;;;;6.00;5.50;;;;;;;24.82;49.76;101996.38;4991879;28;20499;-45
2023/06/15 10:55:28;;;;;;;6.30;6.00;;;;;;;24.85;46.05;102004.03;4992153;28;20495;-44
2023/06/15 10:58:17;;;;;;;6.33;5.83;;;;;;;24.72;45.63;102003.34;4991809;28;20547;-47
2023/06/15 11:00:46;;;;;;;6.50;6.00;;;;;;;24.36;46.07;101992.38;4992060;28;20927;-47
2023/06/15 11:03:25;;;;;;;6.17;5.60;;;;;;;24.23;46.87;101988.16;4991859;28;20516;-45
2023/06/15 11:06:04;;;;;;;5.90;5.53;;;;;;;24.05;47.99;101999.38;4992003;28;20433;-44
2023/06/15 11:08:32;;;;;;;6.63;6.07;;;;;;;23.91;47.85;101990.78;4991514;28;20465;-46
2023/06/15 11:11:00;;;;;;;8.20;7.40;;;;;;;23.92;49.84;101997.06;4995261;28;20441;-45
2023/06/15 11:13:29;;;;;;;11.27;6.83;;;;;;;24.02;50.17;101994.44;4995469;28;20437;-46
2023/06/15 11:16:08;;;;;;;6.50;6.00;;;;;;;24.23;47.25;101988.97;4995625;28;20843;-50
2023/06/15 11:18:36;;;;;;;6.67;6.27;;;;;;;24.37;47.60;101985.84;4992147;28;20835;-49
2023/06/15 11:21:04;;;;;;;6.70;6.30;;;;;;;24.73;46.49;101985.88;4995594;28;20520;-47
2023/06/15 11:23:34;;;;;;;6.87;6.47;;;;;;;24.71;46.26;101976.31;4995455;28;20472;-45
2023/06/15 11:26:02;;;;;;;7.00;6.60;;;;;;;24.46;47.63;102006.91;4995473;28;20577;-51
2023/06/15 11:28:34;;;;;;;7.67;6.97;;;;;;;24.23;48.48;101988.97;4990163;28;21042;-49